sensor_id;sensor_type;location;lat;lon;timestamp;pressure;altitude;pressure_sealevel;temperature;humidity
39177;BME280;24904;52.208;21.192;2023-02-12T00:01:43;101765.52;;;3.13;70.65
39177;BME280;24904;52.208;21.192;2023-02-12T00:06:46;101765.86;;;3.04;70.22
39177;BME280;24904;52.208;21.192;2023-02-12T00:11:50;101769.88;;;2.90;69.76
39177;BME280;24904;52.208;21.192;2023-02-12T00:16:53;101781.24;;;2.84;70.10
39177;BME280;24904;52.208;21.192;2023-02-12T00:21:56;101795.32;;;2.76;70.11
39177;BME280;24904;52.208;21.192;2023-02-12T00:26:59;101807.33;;;2.79;70.19
39177;BME280;24904;52.208;21.192;2023-02-12T00:32:03;101816.45;;;2.74;69.78
39177;BME280;24904;52.208;21.192;2023-02-12T00:37:06;101825.25;;;2.67;69.81
39177;BME280;24904;52.208;21.192;2023-02-12T00:42:09;101828.67;;;2.61;69.34
39177;BME280;24904;52.208;21.192;2023-02-12T00:47:12;101833.08;;;2.60;69.83
39177;BME280;24904;52.208;21.192;2023-02-12T00:52:17;101837.85;;;2.60;69.72
39177;BME280;24904;52.208;21.192;2023-02-12T00:57:20;101842.63;;;2.60;69.92
39177;BME280;24904;52.208;21.192;2023-02-12T01:02:24;101845.52;;;2.58;69.71
39177;BME280;24904;52.208;21.192;2023-02-12T01:07:27;101854.16;;;2.56;69.88
39177;BME280;24904;52.208;21.192;2023-02-12T01:12:31;101864.75;;;2.59;69.78
39177;BME280;24904;52.208;21.192;2023-02-12T01:17:34;101876.11;;;2.62;69.46
39177;BME280;24904;52.208;21.192;2023-02-12T01:22:38;101877.12;;;2.59;69.70
39177;BME280;24904;52.208;21.192;2023-02-12T01:27:41;101890.41;;;2.59;69.67
39177;BME280;24904;52.208;21.192;2023-02-12T01:32:46;101890.83;;;2.60;69.49
39177;BME280;24904;52.208;21.192;2023-02-12T01:37:49;101896.01;;;2.62;69.50
39177;BME280;24904;52.208;21.192;2023-02-12T01:42:53;101903.35;;;2.61;68.79
39177;BME280;24904;52.208;21.192;2023-02-12T01:47:56;101910.77;;;2.62;69.58
39177;BME280;24904;52.208;21.192;2023-02-12T01:53:02;101912.45;;;2.63;69.44
39177;BME280;24904;52.208;21.192;2023-02-12T01:58:05;101908.96;;;2.64;69.10
39177;BME280;24904;52.208;21.192;2023-02-12T02:03:10;101919.55;;;2.63;69.24
39177;BME280;24904;52.208;21.192;2023-02-12T02:08:14;101924.41;;;2.65;69.16
39177;BME280;24904;52.208;21.192;2023-02-12T02:13:17;101935.08;;;2.68;68.98
39177;BME280;24904;52.208;21.192;2023-02-12T02:18:39;101949.73;;;2.66;68.70
39177;BME280;24904;52.208;21.192;2023-02-12T02:23:48;101974.50;;;2.61;68.61
39177;BME280;24904;52.208;21.192;2023-02-12T02:29:02;101974.20;;;2.63;68.98
39177;BME280;24904;52.208;21.192;2023-02-12T02:34:08;101992.59;;;2.63;68.56
39177;BME280;24904;52.208;21.192;2023-02-12T02:39:14;102002.09;;;2.63;68.44
39177;BME280;24904;52.208;21.192;2023-02-12T02:44:21;102007.36;;;2.62;68.39
39177;BME280;24904;52.208;21.192;2023-02-12T02:49:26;102017.73;;;2.61;68.07
39177;BME280;24904;52.208;21.192;2023-02-12T02:54:32;102022.02;;;2.61;67.71
39177;BME280;24904;52.208;21.192;2023-02-12T02:59:37;102030.88;;;2.57;67.44
39177;BME280;24904;52.208;21.192;2023-02-12T03:04:44;102039.36;;;2.55;67.46
39177;BME280;24904;52.208;21.192;2023-02-12T03:09:49;102064.24;;;2.55;67.42
39177;BME280;24904;52.208;21.192;2023-02-12T03:14:56;102083.41;;;2.49;67.42
39177;BME280;24904;52.208;21.192;2023-02-12T03:20:04;102099.86;;;2.46;67.31
39177;BME280;24904;52.208;21.192;2023-02-12T03:25:10;102109.19;;;2.47;67.50
39177;BME280;24904;52.208;21.192;2023-02-12T03:30:15;102125.61;;;2.47;67.05
39177;BME280;24904;52.208;21.192;2023-02-12T03:35:20;102135.56;;;2.42;66.59
39177;BME280;24904;52.208;21.192;2023-02-12T03:40:26;102134.09;;;2.31;66.17
39177;BME280;24904;52.208;21.192;2023-02-12T03:45:34;102147.71;;;2.27;66.60
39177;BME280;24904;52.208;21.192;2023-02-12T03:50:43;102163.95;;;2.31;66.48
39177;BME280;24904;52.208;21.192;2023-02-12T03:55:48;102169.84;;;2.34;66.46
39177;BME280;24904;52.208;21.192;2023-02-12T04:00:53;102177.86;;;2.35;66.09
39177;BME280;24904;52.208;21.192;2023-02-12T04:05:56;102178.08;;;2.35;66.33
39177;BME280;24904;52.208;21.192;2023-02-12T04:11:02;102175.71;;;2.33;66.10
39177;BME280;24904;52.208;21.192;2023-02-12T04:16:11;102175.72;;;2.30;66.40
39177;BME280;24904;52.208;21.192;2023-02-12T04:21:22;102180.89;;;2.29;66.41
39177;BME280;24904;52.208;21.192;2023-02-12T04:26:31;102186.52;;;2.28;66.22
39177;BME280;24904;52.208;21.192;2023-02-12T04:31:37;102194.80;;;2.30;66.14
39177;BME280;24904;52.208;21.192;2023-02-12T04:36:44;102201.42;;;2.24;66.35
39177;BME280;24904;52.208;21.192;2023-02-12T04:41:48;102203.10;;;2.24;66.44
39177;BME280;24904;52.208;21.192;2023-02-12T04:46:52;102206.47;;;2.23;65.78
39177;BME280;24904;52.208;21.192;2023-02-12T04:51:55;102215.96;;;2.25;65.99
39177;BME280;24904;52.208;21.192;2023-02-12T04:56:59;102216.93;;;2.28;66.17
39177;BME280;24904;52.208;21.192;2023-02-12T05:02:02;102223.01;;;2.28;65.90
39177;BME280;24904;52.208;21.192;2023-02-12T05:07:05;102237.04;;;2.24;65.97
39177;BME280;24904;52.208;21.192;2023-02-12T05:12:08;102249.55;;;2.22;66.22
39177;BME280;24904;52.208;21.192;2023-02-12T05:17:12;102253.14;;;2.20;66.23
39177;BME280;24904;52.208;21.192;2023-02-12T05:22:15;102265.17;;;2.21;66.30
39177;BME280;24904;52.208;21.192;2023-02-12T05:27:18;102282.41;;;2.24;66.23
39177;BME280;24904;52.208;21.192;2023-02-12T05:32:22;102290.70;;;2.25;65.75
39177;BME280;24904;52.208;21.192;2023-02-12T05:37:25;102288.33;;;2.26;65.84
39177;BME280;24904;52.208;21.192;2023-02-12T05:42:29;102309.73;;;2.23;65.89
39177;BME280;24904;52.208;21.192;2023-02-12T05:47:32;102316.34;;;2.22;65.49
39177;BME280;24904;52.208;21.192;2023-02-12T05:58:29;102333.16;;;2.13;65.45
39177;BME280;24904;52.208;21.192;2023-02-12T06:03:32;102335.05;;;2.15;65.49
39177;BME280;24904;52.208;21.192;2023-02-12T06:08:35;102343.40;;;2.12;65.58
39177;BME280;24904;52.208;21.192;2023-02-12T06:13:39;102357.33;;;2.16;65.38
39177;BME280;24904;52.208;21.192;2023-02-12T06:18:42;102366.16;;;2.17;64.91
39177;BME280;24904;52.208;21.192;2023-02-12T06:23:46;102375.38;;;2.14;65.69
39177;BME280;24904;52.208;21.192;2023-02-12T06:28:49;102382.75;;;2.19;65.08
39177;BME280;24904;52.208;21.192;2023-02-12T06:33:53;102391.63;;;2.21;64.82
39177;BME280;24904;52.208;21.192;2023-02-12T06:38:56;102397.75;;;2.13;65.34
39177;BME280;24904;52.208;21.192;2023-02-12T06:44:00;102402.57;;;2.11;65.37
39177;BME280;24904;52.208;21.192;2023-02-12T06:49:03;102400.77;;;2.05;65.08
39177;BME280;24904;52.208;21.192;2023-02-12T06:54:09;102403.27;;;2.03;64.44
39177;BME280;24904;52.208;21.192;2023-02-12T06:59:14;102408.25;;;1.98;64.32
39177;BME280;24904;52.208;21.192;2023-02-12T07:04:18;102411.17;;;1.98;64.70
39177;BME280;24904;52.208;21.192;2023-02-12T07:09:22;102417.27;;;1.96;65.00
39177;BME280;24904;52.208;21.192;2023-02-12T07:14:25;102422.73;;;2.01;65.18
39177;BME280;24904;52.208;21.192;2023-02-12T07:19:29;102427.77;;;2.08;65.17
39177;BME280;24904;52.208;21.192;2023-02-12T07:24:32;102424.80;;;2.13;64.99
39177;BME280;24904;52.208;21.192;2023-02-12T07:29:35;102433.42;;;2.14;65.09
39177;BME280;24904;52.208;21.192;2023-02-12T07:34:39;102437.42;;;2.13;64.79
39177;BME280;24904;52.208;21.192;2023-02-12T07:39:42;102434.46;;;2.23;64.50
39177;BME280;24904;52.208;21.192;2023-02-12T07:44:45;102433.07;;;2.35;63.89
39177;BME280;24904;52.208;21.192;2023-02-12T07:49:50;102432.21;;;2.44;63.37
39177;BME280;24904;52.208;21.192;2023-02-12T07:54:53;102437.52;;;2.40;62.71
39177;BME280;24904;52.208;21.192;2023-02-12T07:59:56;102437.84;;;2.44;62.71
39177;BME280;24904;52.208;21.192;2023-02-12T08:05:00;102442.41;;;2.58;62.60
39177;BME280;24904;52.208;21.192;2023-02-12T08:10:03;102455.31;;;2.71;62.64
39177;BME280;24904;52.208;21.192;2023-02-12T08:15:07;102452.17;;;2.82;62.29
39177;BME280;24904;52.208;21.192;2023-02-12T08:20:11;102459.75;;;2.91;61.77
39177;BME280;24904;52.208;21.192;2023-02-12T08:30:04;102468.55;;;3.17;62.25
39177;BME280;24904;52.208;21.192;2023-02-12T08:35:10;102470.44;;;3.28;62.00
39177;BME280;24904;52.208;21.192;2023-02-12T08:40:16;102469.06;;;3.34;60.71
39177;BME280;24904;52.208;21.192;2023-02-12T08:45:21;102471.02;;;3.37;60.95
39177;BME280;24904;52.208;21.192;2023-02-12T08:50:29;102476.81;;;3.44;60.47
39177;BME280;24904;52.208;21.192;2023-02-12T08:55:34;102476.05;;;3.47;61.03
39177;BME280;24904;52.208;21.192;2023-02-12T09:00:39;102476.91;;;3.62;60.91
39177;BME280;24904;52.208;21.192;2023-02-12T09:05:47;102468.56;;;3.72;60.61
39177;BME280;24904;52.208;21.192;2023-02-12T09:10:52;102470.15;;;3.81;60.23
39177;BME280;24904;52.208;21.192;2023-02-12T09:15:58;102476.45;;;3.86;59.37
39177;BME280;24904;52.208;21.192;2023-02-12T09:21:06;102480.41;;;3.87;59.68
39177;BME280;24904;52.208;21.192;2023-02-12T09:26:14;102479.40;;;3.95;59.41
39177;BME280;24904;52.208;21.192;2023-02-12T09:31:21;102495.04;;;3.98;59.38
39177;BME280;24904;52.208;21.192;2023-02-12T09:36:29;102495.82;;;4.03;59.21
39177;BME280;24904;52.208;21.192;2023-02-12T09:41:53;102503.55;;;4.13;59.18
39177;BME280;24904;52.208;21.192;2023-02-12T09:47:04;102504.02;;;4.26;59.08
39177;BME280;24904;52.208;21.192;2023-02-12T09:52:15;102511.63;;;4.37;58.56
39177;BME280;24904;52.208;21.192;2023-02-12T09:57:24;102523.53;;;4.45;58.78
39177;BME280;24904;52.208;21.192;2023-02-12T10:02:33;102521.19;;;4.45;57.97
39177;BME280;24904;52.208;21.192;2023-02-12T10:07:52;102527.40;;;4.27;58.04
39177;BME280;24904;52.208;21.192;2023-02-12T10:19:30;102505.91;;;4.28;57.49
39177;BME280;24904;52.208;21.192;2023-02-12T10:28:38;102503.38;;;4.22;57.46
39177;BME280;24904;52.208;21.192;2023-02-12T10:33:44;102506.98;;;4.21;58.05
39177;BME280;24904;52.208;21.192;2023-02-12T10:38:50;102521.52;;;4.20;57.94
39177;BME280;24904;52.208;21.192;2023-02-12T10:43:55;102520.85;;;4.19;58.87
39177;BME280;24904;52.208;21.192;2023-02-12T10:48:59;102508.67;;;4.28;58.95
39177;BME280;24904;52.208;21.192;2023-02-12T10:54:34;102503.36;;;4.44;58.77
39177;BME280;24904;52.208;21.192;2023-02-12T10:59:38;102498.59;;;4.58;58.51
39177;BME280;24904;52.208;21.192;2023-02-12T11:04:42;102500.52;;;4.53;57.50
39177;BME280;24904;52.208;21.192;2023-02-12T11:09:47;102507.50;;;4.52;57.74
39177;BME280;24904;52.208;21.192;2023-02-12T11:14:50;102503.09;;;4.60;58.13
39177;BME280;24904;52.208;21.192;2023-02-12T11:20:20;102511.20;;;4.69;57.86
39177;BME280;24904;52.208;21.192;2023-02-12T11:25:27;102511.58;;;4.83;57.90
39177;BME280;24904;52.208;21.192;2023-02-12T11:30:30;102509.44;;;4.90;57.05
39177;BME280;24904;52.208;21.192;2023-02-12T11:35:34;102510.24;;;4.63;55.54
39177;BME280;24904;52.208;21.192;2023-02-12T11:40:37;102502.27;;;4.55;56.35
39177;BME280;24904;52.208;21.192;2023-02-12T11:45:43;102495.98;;;4.57;56.72
39177;BME280;24904;52.208;21.192;2023-02-12T11:50:49;102486.80;;;4.56;56.97
39177;BME280;24904;52.208;21.192;2023-02-12T11:55:57;102488.45;;;4.67;57.38
39177;BME280;24904;52.208;21.192;2023-02-12T12:01:08;102490.92;;;4.64;57.28
39177;BME280;24904;52.208;21.192;2023-02-12T12:06:28;102484.98;;;4.59;57.25
39177;BME280;24904;52.208;21.192;2023-02-12T12:11:39;102484.90;;;4.55;57.46
39177;BME280;24904;52.208;21.192;2023-02-12T12:16:49;102488.24;;;4.51;57.01
39177;BME280;24904;52.208;21.192;2023-02-12T12:22:19;102482.52;;;4.60;57.95
39177;BME280;24904;52.208;21.192;2023-02-12T12:27:32;102470.04;;;4.55;58.03
39177;BME280;24904;52.208;21.192;2023-02-12T12:33:09;102468.88;;;4.49;58.46
39177;BME280;24904;52.208;21.192;2023-02-12T12:38:27;102463.83;;;4.48;58.34
39177;BME280;24904;52.208;21.192;2023-02-12T12:43:42;102459.03;;;4.51;58.00
39177;BME280;24904;52.208;21.192;2023-02-12T12:49:24;102453.54;;;4.57;58.13
39177;BME280;24904;52.208;21.192;2023-02-12T12:54:43;102451.23;;;4.61;57.70
39177;BME280;24904;52.208;21.192;2023-02-12T13:00:11;102452.20;;;4.54;57.35
39177;BME280;24904;52.208;21.192;2023-02-12T13:10:59;102441.90;;;4.63;58.43
39177;BME280;24904;52.208;21.192;2023-02-12T13:16:12;102441.63;;;4.64;57.86
39177;BME280;24904;52.208;21.192;2023-02-12T13:21:33;102438.59;;;4.56;57.90
39177;BME280;24904;52.208;21.192;2023-02-12T13:26:46;102443.02;;;4.54;57.33
39177;BME280;24904;52.208;21.192;2023-02-12T13:31:56;102447.58;;;4.41;57.26
39177;BME280;24904;52.208;21.192;2023-02-12T13:37:03;102445.73;;;4.38;58.17
39177;BME280;24904;52.208;21.192;2023-02-12T13:42:19;102444.58;;;4.34;57.88
39177;BME280;24904;52.208;21.192;2023-02-12T13:47:33;102447.73;;;4.26;57.47
39177;BME280;24904;52.208;21.192;2023-02-12T13:52:46;102456.64;;;4.11;57.44
39177;BME280;24904;52.208;21.192;2023-02-12T14:03:38;102452.02;;;4.26;57.67
39177;BME280;24904;52.208;21.192;2023-02-12T14:08:45;102450.63;;;4.15;57.92
39177;BME280;24904;52.208;21.192;2023-02-12T14:13:56;102450.95;;;4.06;57.96
39177;BME280;24904;52.208;21.192;2023-02-12T14:24:52;102458.66;;;3.87;58.50
39177;BME280;24904;52.208;21.192;2023-02-12T14:30:23;102456.40;;;3.84;59.14
39177;BME280;24904;52.208;21.192;2023-02-12T14:35:35;102451.79;;;3.82;58.95
39177;BME280;24904;52.208;21.192;2023-02-12T14:40:46;102451.94;;;3.84;59.22
39177;BME280;24904;52.208;21.192;2023-02-12T14:45:51;102449.70;;;3.85;59.84
39177;BME280;24904;52.208;21.192;2023-02-12T14:50:57;102447.75;;;3.85;60.20
39177;BME280;24904;52.208;21.192;2023-02-12T14:56:07;102443.52;;;3.72;59.99
39177;BME280;24904;52.208;21.192;2023-02-12T15:01:13;102451.36;;;3.65;60.22
39177;BME280;24904;52.208;21.192;2023-02-12T15:06:22;102451.81;;;3.63;60.67
39177;BME280;24904;52.208;21.192;2023-02-12T15:11:40;102455.73;;;3.61;60.60
39177;BME280;24904;52.208;21.192;2023-02-12T15:16:53;102459.25;;;3.48;60.80
39177;BME280;24904;52.208;21.192;2023-02-12T15:22:02;102457.33;;;3.41;61.40
39177;BME280;24904;52.208;21.192;2023-02-12T15:27:09;102458.28;;;3.44;61.57
39177;BME280;24904;52.208;21.192;2023-02-12T15:32:24;102456.73;;;3.43;61.67
39177;BME280;24904;52.208;21.192;2023-02-12T15:37:32;102468.27;;;3.33;61.87
39177;BME280;24904;52.208;21.192;2023-02-12T15:42:38;102465.79;;;3.23;62.35
39177;BME280;24904;52.208;21.192;2023-02-12T15:47:55;102473.30;;;3.14;62.48
39177;BME280;24904;52.208;21.192;2023-02-12T15:53:01;102475.46;;;3.08;62.77
39177;BME280;24904;52.208;21.192;2023-02-12T15:58:20;102478.64;;;3.00;63.05
39177;BME280;24904;52.208;21.192;2023-02-12T16:03:29;102478.37;;;3.00;63.36
39177;BME280;24904;52.208;21.192;2023-02-12T16:08:36;102477.64;;;3.05;63.57
39177;BME280;24904;52.208;21.192;2023-02-12T16:13:46;102482.09;;;3.10;63.42
39177;BME280;24904;52.208;21.192;2023-02-12T16:19:07;102478.41;;;3.10;63.54
39177;BME280;24904;52.208;21.192;2023-02-12T16:24:29;102475.21;;;3.03;63.58
39177;BME280;24904;52.208;21.192;2023-02-12T16:29:38;102472.67;;;2.95;63.35
39177;BME280;24904;52.208;21.192;2023-02-12T16:34:59;102457.43;;;2.87;63.98
39177;BME280;24904;52.208;21.192;2023-02-12T16:40:22;102463.17;;;2.90;64.03
39177;BME280;24904;52.208;21.192;2023-02-12T16:45:48;102459.21;;;2.91;64.31
39177;BME280;24904;52.208;21.192;2023-02-12T16:50:55;102451.98;;;2.89;64.15
39177;BME280;24904;52.208;21.192;2023-02-12T16:56:02;102440.49;;;2.87;64.46
39177;BME280;24904;52.208;21.192;2023-02-12T17:01:08;102441.99;;;2.92;64.66
39177;BME280;24904;52.208;21.192;2023-02-12T17:06:20;102440.48;;;2.91;64.71
39177;BME280;24904;52.208;21.192;2023-02-12T17:11:27;102438.25;;;2.90;64.64
39177;BME280;24904;52.208;21.192;2023-02-12T17:16:32;102436.03;;;2.91;64.88
39177;BME280;24904;52.208;21.192;2023-02-12T17:21:38;102441.15;;;2.85;64.92
39177;BME280;24904;52.208;21.192;2023-02-12T17:26:44;102440.00;;;2.81;64.90
39177;BME280;24904;52.208;21.192;2023-02-12T17:31:50;102456.23;;;2.76;65.31
39177;BME280;24904;52.208;21.192;2023-02-12T17:36:58;102459.87;;;2.73;65.46
39177;BME280;24904;52.208;21.192;2023-02-12T17:42:03;102471.92;;;2.70;65.32
39177;BME280;24904;52.208;21.192;2023-02-12T17:47:09;102467.73;;;2.60;65.71
39177;BME280;24904;52.208;21.192;2023-02-12T17:52:15;102473.60;;;2.59;66.13
39177;BME280;24904;52.208;21.192;2023-02-12T18:04:22;102481.28;;;2.44;66.56
39177;BME280;24904;52.208;21.192;2023-02-12T18:09:27;102475.03;;;2.41;66.83
39177;BME280;24904;52.208;21.192;2023-02-12T18:14:33;102463.20;;;2.34;67.13
39177;BME280;24904;52.208;21.192;2023-02-12T18:19:39;102456.50;;;2.37;67.36
39177;BME280;24904;52.208;21.192;2023-02-12T18:25:05;102463.45;;;2.46;67.78
39177;BME280;24904;52.208;21.192;2023-02-12T18:30:12;102460.66;;;2.41;67.94
39177;BME280;24904;52.208;21.192;2023-02-12T18:35:17;102452.16;;;2.43;68.62
39177;BME280;24904;52.208;21.192;2023-02-12T18:40:22;102447.61;;;2.43;68.94
39177;BME280;24904;52.208;21.192;2023-02-12T18:45:27;102448.79;;;2.48;69.32
39177;BME280;24904;52.208;21.192;2023-02-12T18:50:33;102442.28;;;2.50;69.91
39177;BME280;24904;52.208;21.192;2023-02-12T18:55:39;102433.84;;;2.58;70.10
39177;BME280;24904;52.208;21.192;2023-02-12T19:00:44;102433.41;;;2.58;70.29
39177;BME280;24904;52.208;21.192;2023-02-12T19:05:49;102433.02;;;2.61;70.82
39177;BME280;24904;52.208;21.192;2023-02-12T19:10:55;102439.05;;;2.67;71.16
39177;BME280;24904;52.208;21.192;2023-02-12T19:16:06;102434.64;;;2.81;71.07
39177;BME280;24904;52.208;21.192;2023-02-12T19:21:12;102429.25;;;2.90;71.36
39177;BME280;24904;52.208;21.192;2023-02-12T19:26:19;102430.65;;;3.01;71.51
39177;BME280;24904;52.208;21.192;2023-02-12T19:31:26;102432.11;;;3.03;71.76
39177;BME280;24904;52.208;21.192;2023-02-12T19:36:33;102429.34;;;3.06;71.83
39177;BME280;24904;52.208;21.192;2023-02-12T19:41:39;102426.88;;;3.16;72.01
39177;BME280;24904;52.208;21.192;2023-02-12T19:46:45;102409.33;;;3.18;72.38
39177;BME280;24904;52.208;21.192;2023-02-12T19:51:50;102404.70;;;3.24;72.49
39177;BME280;24904;52.208;21.192;2023-02-12T19:56:56;102405.70;;;3.33;72.34
39177;BME280;24904;52.208;21.192;2023-02-12T20:02:01;102407.60;;;3.47;72.21
39177;BME280;24904;52.208;21.192;2023-02-12T20:07:06;102400.86;;;3.60;71.97
39177;BME280;24904;52.208;21.192;2023-02-12T20:12:12;102386.84;;;3.72;71.87
39177;BME280;24904;52.208;21.192;2023-02-12T20:17:17;102386.49;;;3.75;71.61
39177;BME280;24904;52.208;21.192;2023-02-12T20:22:23;102391.36;;;3.80;71.77
39177;BME280;24904;52.208;21.192;2023-02-12T20:27:28;102395.23;;;3.88;71.72
39177;BME280;24904;52.208;21.192;2023-02-12T20:32:33;102391.48;;;3.96;71.84
39177;BME280;24904;52.208;21.192;2023-02-12T20:37:39;102382.43;;;4.01;71.58
39177;BME280;24904;52.208;21.192;2023-02-12T20:42:44;102370.59;;;4.05;71.89
39177;BME280;24904;52.208;21.192;2023-02-12T20:47:49;102362.59;;;4.07;71.67
39177;BME280;24904;52.208;21.192;2023-02-12T20:52:55;102351.27;;;4.10;71.76
39177;BME280;24904;52.208;21.192;2023-02-12T20:58:00;102347.33;;;4.13;71.48
39177;BME280;24904;52.208;21.192;2023-02-12T21:03:05;102348.14;;;4.14;71.75
39177;BME280;24904;52.208;21.192;2023-02-12T21:08:10;102342.13;;;4.17;71.55
39177;BME280;24904;52.208;21.192;2023-02-12T21:13:15;102340.12;;;4.16;71.47
39177;BME280;24904;52.208;21.192;2023-02-12T21:18:21;102349.67;;;4.18;71.66
39177;BME280;24904;52.208;21.192;2023-02-12T21:24:59;102340.41;;;4.21;71.40
39177;BME280;24904;52.208;21.192;2023-02-12T21:30:03;102340.40;;;4.21;71.47
39177;BME280;24904;52.208;21.192;2023-02-12T21:35:07;102338.65;;;4.16;71.50
39177;BME280;24904;52.208;21.192;2023-02-12T21:40:11;102331.61;;;4.14;71.15
39177;BME280;24904;52.208;21.192;2023-02-12T21:45:15;102325.17;;;4.10;71.22
39177;BME280;24904;52.208;21.192;2023-02-12T21:50:18;102313.39;;;4.07;71.65
39177;BME280;24904;52.208;21.192;2023-02-12T21:55:21;102318.19;;;4.05;72.22
39177;BME280;24904;52.208;21.192;2023-02-12T22:00:25;102315.98;;;4.03;72.77
39177;BME280;24904;52.208;21.192;2023-02-12T22:05:31;102309.65;;;4.00;73.96
39177;BME280;24904;52.208;21.192;2023-02-12T22:10:35;102306.02;;;4.04;75.09
39177;BME280;24904;52.208;21.192;2023-02-12T22:15:39;102298.39;;;4.05;76.12
39177;BME280;24904;52.208;21.192;2023-02-12T22:20:42;102300.08;;;4.08;76.27
39177;BME280;24904;52.208;21.192;2023-02-12T22:25:45;102301.07;;;4.07;76.99
39177;BME280;24904;52.208;21.192;2023-02-12T22:30:48;102304.77;;;4.05;77.48
39177;BME280;24904;52.208;21.192;2023-02-12T22:35:51;102304.11;;;4.00;77.65
39177;BME280;24904;52.208;21.192;2023-02-12T22:40:54;102301.65;;;4.01;78.08
39177;BME280;24904;52.208;21.192;2023-02-12T22:45:58;102291.98;;;4.04;78.38
39177;BME280;24904;52.208;21.192;2023-02-12T22:51:08;102281.86;;;4.01;78.82
39177;BME280;24904;52.208;21.192;2023-02-12T22:56:11;102279.45;;;3.95;79.43
39177;BME280;24904;52.208;21.192;2023-02-12T23:01:17;102273.23;;;3.91;79.89
39177;BME280;24904;52.208;21.192;2023-02-12T23:06:23;102266.30;;;3.90;80.30
39177;BME280;24904;52.208;21.192;2023-02-12T23:11:27;102263.54;;;3.93;80.27
39177;BME280;24904;52.208;21.192;2023-02-12T23:16:31;102261.74;;;3.97;80.50
39177;BME280;24904;52.208;21.192;2023-02-12T23:21:34;102254.14;;;3.95;80.58
39177;BME280;24904;52.208;21.192;2023-02-12T23:26:37;102245.60;;;3.94;81.03
39177;BME280;24904;52.208;21.192;2023-02-12T23:31:40;102237.64;;;3.99;80.93
39177;BME280;24904;52.208;21.192;2023-02-12T23:36:43;102232.23;;;4.01;81.18
39177;BME280;24904;52.208;21.192;2023-02-12T23:41:46;102229.21;;;4.03;81.11
39177;BME280;24904;52.208;21.192;2023-02-12T23:46:49;102219.59;;;4.03;81.39
39177;BME280;24904;52.208;21.192;2023-02-12T23:51:55;102214.29;;;4.07;81.20
39177;BME280;24904;52.208;21.192;2023-02-12T23:56:58;102201.15;;;4.12;81.20
